sensor_id;sensor_type;location;lat;lon;timestamp;P1;durP1;ratioP1;P2;durP2;ratioP2
40453;SDS011;26160;51.858;4.398;2024-03-22T00:10:10;73.40;;;40.03;;
40453;SDS011;26160;51.858;4.398;2024-03-22T00:15:40;80.28;;;41.80;;
40453;SDS011;26160;51.858;4.398;2024-03-22T00:18:17;79.25;;;43.28;;
40453;SDS011;26160;51.858;4.398;2024-03-22T00:24:37;92.15;;;46.90;;
40453;SDS011;26160;51.858;4.398;2024-03-22T00:27:07;97.93;;;47.80;;
40453;SDS011;26160;51.858;4.398;2024-03-22T00:29:44;91.32;;;48.05;;
40453;SDS011;26160;51.858;4.398;2024-03-22T00:32:13;98.78;;;48.22;;
40453;SDS011;26160;51.858;4.398;2024-03-22T00:34:44;91.40;;;48.22;;
40453;SDS011;26160;51.858;4.398;2024-03-22T00:37:11;101.53;;;50.00;;
40453;SDS011;26160;51.858;4.398;2024-03-22T00:39:39;99.85;;;50.50;;
40453;SDS011;26160;51.858;4.398;2024-03-22T00:42:15;95.30;;;48.20;;
40453;SDS011;26160;51.858;4.398;2024-03-22T00:44:42;95.32;;;48.83;;
40453;SDS011;26160;51.858;4.398;2024-03-22T00:47:15;92.57;;;46.08;;
40453;SDS011;26160;51.858;4.398;2024-03-22T00:49:54;105.90;;;52.88;;
40453;SDS011;26160;51.858;4.398;2024-03-22T00:52:39;95.05;;;50.88;;
40453;SDS011;26160;51.858;4.398;2024-03-22T00:55:13;99.20;;;47.50;;
40453;SDS011;26160;51.858;4.398;2024-03-22T00:58:00;105.90;;;50.97;;
40453;SDS011;26160;51.858;4.398;2024-03-22T01:00:41;106.10;;;51.28;;
40453;SDS011;26160;51.858;4.398;2024-03-22T01:06:38;89.27;;;44.07;;
40453;SDS011;26160;51.858;4.398;2024-03-22T01:09:09;82.07;;;40.78;;
40453;SDS011;26160;51.858;4.398;2024-03-22T01:12:17;69.63;;;36.33;;
40453;SDS011;26160;51.858;4.398;2024-03-22T01:17:38;77.10;;;36.20;;
40453;SDS011;26160;51.858;4.398;2024-03-22T01:20:09;80.28;;;36.72;;
40453;SDS011;26160;51.858;4.398;2024-03-22T01:22:47;84.35;;;37.22;;
40453;SDS011;26160;51.858;4.398;2024-03-22T01:25:27;73.13;;;35.67;;
40453;SDS011;26160;51.858;4.398;2024-03-22T01:30:51;73.28;;;34.63;;
40453;SDS011;26160;51.858;4.398;2024-03-22T01:55:23;52.38;;;26.88;;
40453;SDS011;26160;51.858;4.398;2024-03-22T01:57:52;58.63;;;27.83;;
40453;SDS011;26160;51.858;4.398;2024-03-22T02:02:58;56.17;;;28.35;;
40453;SDS011;26160;51.858;4.398;2024-03-22T02:05:27;50.00;;;27.35;;
40453;SDS011;26160;51.858;4.398;2024-03-22T02:08:12;51.05;;;27.98;;
40453;SDS011;26160;51.858;4.398;2024-03-22T02:10:40;48.95;;;26.83;;
40453;SDS011;26160;51.858;4.398;2024-03-22T02:13:25;53.30;;;27.75;;
40453;SDS011;26160;51.858;4.398;2024-03-22T02:15:54;58.03;;;28.88;;
40453;SDS011;26160;51.858;4.398;2024-03-22T02:18:29;56.67;;;28.08;;
40453;SDS011;26160;51.858;4.398;2024-03-22T02:21:15;53.35;;;28.75;;
40453;SDS011;26160;51.858;4.398;2024-03-22T02:23:45;55.70;;;28.17;;
40453;SDS011;26160;51.858;4.398;2024-03-22T02:26:23;52.83;;;26.55;;
40453;SDS011;26160;51.858;4.398;2024-03-22T02:28:57;54.13;;;27.55;;
40453;SDS011;26160;51.858;4.398;2024-03-22T02:36:35;58.53;;;26.13;;
40453;SDS011;26160;51.858;4.398;2024-03-22T02:39:09;52.22;;;26.35;;
40453;SDS011;26160;51.858;4.398;2024-03-22T02:41:50;49.65;;;25.85;;
40453;SDS011;26160;51.858;4.398;2024-03-22T02:44:22;56.67;;;27.52;;
40453;SDS011;26160;51.858;4.398;2024-03-22T02:46:53;51.60;;;25.80;;
40453;SDS011;26160;51.858;4.398;2024-03-22T02:49:25;49.60;;;25.23;;
40453;SDS011;26160;51.858;4.398;2024-03-22T02:52:08;47.00;;;24.40;;
40453;SDS011;26160;51.858;4.398;2024-03-22T02:54:38;41.85;;;23.55;;
40453;SDS011;26160;51.858;4.398;2024-03-22T02:57:24;46.72;;;25.05;;
40453;SDS011;26160;51.858;4.398;2024-03-22T02:59:59;54.35;;;24.98;;
40453;SDS011;26160;51.858;4.398;2024-03-22T03:02:41;47.88;;;24.73;;
40453;SDS011;26160;51.858;4.398;2024-03-22T03:08:30;44.58;;;21.83;;
40453;SDS011;26160;51.858;4.398;2024-03-22T03:10:56;41.10;;;23.75;;
40453;SDS011;26160;51.858;4.398;2024-03-22T03:13:24;50.50;;;24.38;;
40453;SDS011;26160;51.858;4.398;2024-03-22T03:15:56;44.47;;;22.87;;
40453;SDS011;26160;51.858;4.398;2024-03-22T03:18:24;43.03;;;22.80;;
40453;SDS011;26160;51.858;4.398;2024-03-22T03:20:53;38.22;;;23.55;;
40453;SDS011;26160;51.858;4.398;2024-03-22T03:26:22;48.65;;;24.65;;
40453;SDS011;26160;51.858;4.398;2024-03-22T03:29:07;46.75;;;24.33;;
40453;SDS011;26160;51.858;4.398;2024-03-22T03:31:37;47.55;;;25.30;;
40453;SDS011;26160;51.858;4.398;2024-03-22T03:34:08;48.25;;;26.33;;
40453;SDS011;26160;51.858;4.398;2024-03-22T03:36:44;52.05;;;27.40;;
40453;SDS011;26160;51.858;4.398;2024-03-22T03:39:46;52.92;;;27.60;;
40453;SDS011;26160;51.858;4.398;2024-03-22T03:42:17;53.15;;;29.10;;
40453;SDS011;26160;51.858;4.398;2024-03-22T03:44:57;57.83;;;28.90;;
40453;SDS011;26160;51.858;4.398;2024-03-22T03:47:45;51.47;;;28.60;;
40453;SDS011;26160;51.858;4.398;2024-03-22T03:50:18;57.90;;;29.88;;
40453;SDS011;26160;51.858;4.398;2024-03-22T03:55:54;65.55;;;35.17;;
40453;SDS011;26160;51.858;4.398;2024-03-22T03:58:53;64.50;;;36.15;;
40453;SDS011;26160;51.858;4.398;2024-03-22T04:04:05;75.00;;;38.65;;
40453;SDS011;26160;51.858;4.398;2024-03-22T04:06:44;69.28;;;39.42;;
40453;SDS011;26160;51.858;4.398;2024-03-22T04:09:16;71.40;;;37.05;;
40453;SDS011;26160;51.858;4.398;2024-03-22T04:12:02;69.72;;;38.17;;
40453;SDS011;26160;51.858;4.398;2024-03-22T04:17:55;69.93;;;38.13;;
40453;SDS011;26160;51.858;4.398;2024-03-22T04:20:27;64.93;;;35.83;;
40453;SDS011;26160;51.858;4.398;2024-03-22T04:25:40;73.55;;;38.20;;
40453;SDS011;26160;51.858;4.398;2024-03-22T04:28:06;72.15;;;38.22;;
40453;SDS011;26160;51.858;4.398;2024-03-22T04:30:34;70.88;;;40.05;;
40453;SDS011;26160;51.858;4.398;2024-03-22T04:33:10;77.22;;;37.88;;
40453;SDS011;26160;51.858;4.398;2024-03-22T04:35:44;78.43;;;38.88;;
40453;SDS011;26160;51.858;4.398;2024-03-22T04:38:46;68.45;;;39.10;;
40453;SDS011;26160;51.858;4.398;2024-03-22T04:41:20;73.70;;;40.47;;
40453;SDS011;26160;51.858;4.398;2024-03-22T04:46:33;74.03;;;40.43;;
40453;SDS011;26160;51.858;4.398;2024-03-22T04:49:18;66.75;;;38.20;;
40453;SDS011;26160;51.858;4.398;2024-03-22T04:51:59;68.82;;;37.33;;
40453;SDS011;26160;51.858;4.398;2024-03-22T04:54:27;63.07;;;37.80;;
40453;SDS011;26160;51.858;4.398;2024-03-22T04:56:55;61.92;;;34.95;;
40453;SDS011;26160;51.858;4.398;2024-03-22T04:59:23;64.30;;;35.80;;
40453;SDS011;26160;51.858;4.398;2024-03-22T05:01:54;60.53;;;35.95;;
40453;SDS011;26160;51.858;4.398;2024-03-22T05:04:28;61.70;;;33.72;;
40453;SDS011;26160;51.858;4.398;2024-03-22T05:07:02;58.10;;;33.37;;
40453;SDS011;26160;51.858;4.398;2024-03-22T05:09:40;55.53;;;31.87;;
40453;SDS011;26160;51.858;4.398;2024-03-22T05:12:10;54.17;;;33.05;;
40453;SDS011;26160;51.858;4.398;2024-03-22T05:14:53;55.80;;;30.77;;
40453;SDS011;26160;51.858;4.398;2024-03-22T05:17:25;61.92;;;32.55;;
40453;SDS011;26160;51.858;4.398;2024-03-22T05:19:57;54.50;;;32.47;;
40453;SDS011;26160;51.858;4.398;2024-03-22T05:22:48;54.78;;;32.03;;
40453;SDS011;26160;51.858;4.398;2024-03-22T05:25:16;59.53;;;32.30;;
40453;SDS011;26160;51.858;4.398;2024-03-22T05:27:53;60.83;;;33.47;;
40453;SDS011;26160;51.858;4.398;2024-03-22T05:33:34;63.60;;;34.75;;
40453;SDS011;26160;51.858;4.398;2024-03-22T05:36:00;56.50;;;33.25;;
40453;SDS011;26160;51.858;4.398;2024-03-22T05:41:25;65.97;;;33.83;;
40453;SDS011;26160;51.858;4.398;2024-03-22T05:43:55;64.10;;;33.25;;
40453;SDS011;26160;51.858;4.398;2024-03-22T05:46:47;61.55;;;33.95;;
40453;SDS011;26160;51.858;4.398;2024-03-22T05:49:13;64.83;;;36.67;;
40453;SDS011;26160;51.858;4.398;2024-03-22T05:51:43;65.63;;;37.30;;
40453;SDS011;26160;51.858;4.398;2024-03-22T05:54:10;71.95;;;38.70;;
40453;SDS011;26160;51.858;4.398;2024-03-22T05:57:01;71.65;;;39.35;;
40453;SDS011;26160;51.858;4.398;2024-03-22T05:59:29;73.05;;;39.47;;
40453;SDS011;26160;51.858;4.398;2024-03-22T06:01:56;68.43;;;38.60;;
40453;SDS011;26160;51.858;4.398;2024-03-22T06:04:22;81.35;;;39.50;;
40453;SDS011;26160;51.858;4.398;2024-03-22T06:06:50;70.10;;;38.17;;
40453;SDS011;26160;51.858;4.398;2024-03-22T06:09:17;76.30;;;40.25;;
40453;SDS011;26160;51.858;4.398;2024-03-22T06:12:00;74.03;;;40.28;;
40453;SDS011;26160;51.858;4.398;2024-03-22T06:14:28;85.03;;;39.63;;
40453;SDS011;26160;51.858;4.398;2024-03-22T06:16:54;72.20;;;38.45;;
40453;SDS011;26160;51.858;4.398;2024-03-22T06:19:21;67.75;;;38.10;;
40453;SDS011;26160;51.858;4.398;2024-03-22T06:21:49;69.05;;;37.75;;
40453;SDS011;26160;51.858;4.398;2024-03-22T06:24:17;66.22;;;36.72;;
40453;SDS011;26160;51.858;4.398;2024-03-22T06:26:45;68.38;;;35.97;;
40453;SDS011;26160;51.858;4.398;2024-03-22T06:29:15;67.13;;;37.15;;
40453;SDS011;26160;51.858;4.398;2024-03-22T06:31:42;66.40;;;36.33;;
40453;SDS011;26160;51.858;4.398;2024-03-22T06:34:09;61.10;;;34.38;;
40453;SDS011;26160;51.858;4.398;2024-03-22T06:36:38;58.85;;;32.22;;
40453;SDS011;26160;51.858;4.398;2024-03-22T06:39:08;62.75;;;30.95;;
40453;SDS011;26160;51.858;4.398;2024-03-22T06:41:38;58.15;;;30.23;;
40453;SDS011;26160;51.858;4.398;2024-03-22T06:44:04;58.03;;;29.60;;
40453;SDS011;26160;51.858;4.398;2024-03-22T06:46:45;56.00;;;30.13;;
40453;SDS011;26160;51.858;4.398;2024-03-22T06:49:30;60.13;;;28.30;;
40453;SDS011;26160;51.858;4.398;2024-03-22T06:52:13;49.72;;;25.58;;
40453;SDS011;26160;51.858;4.398;2024-03-22T06:54:42;53.85;;;27.10;;
40453;SDS011;26160;51.858;4.398;2024-03-22T06:57:09;50.97;;;25.88;;
40453;SDS011;26160;51.858;4.398;2024-03-22T06:59:38;49.90;;;25.27;;
40453;SDS011;26160;51.858;4.398;2024-03-22T07:02:07;51.97;;;24.90;;
40453;SDS011;26160;51.858;4.398;2024-03-22T07:04:35;49.30;;;24.10;;
40453;SDS011;26160;51.858;4.398;2024-03-22T07:07:02;47.33;;;23.00;;
40453;SDS011;26160;51.858;4.398;2024-03-22T07:09:29;44.00;;;22.35;;
40453;SDS011;26160;51.858;4.398;2024-03-22T07:11:58;46.22;;;22.67;;
40453;SDS011;26160;51.858;4.398;2024-03-22T07:14:25;44.20;;;23.15;;
40453;SDS011;26160;51.858;4.398;2024-03-22T07:16:54;42.30;;;21.30;;
40453;SDS011;26160;51.858;4.398;2024-03-22T07:19:21;38.58;;;19.95;;
40453;SDS011;26160;51.858;4.398;2024-03-22T07:21:48;39.50;;;19.13;;
40453;SDS011;26160;51.858;4.398;2024-03-22T07:24:15;38.33;;;18.45;;
40453;SDS011;26160;51.858;4.398;2024-03-22T07:26:43;41.45;;;18.35;;
40453;SDS011;26160;51.858;4.398;2024-03-22T07:29:11;41.00;;;16.98;;
40453;SDS011;26160;51.858;4.398;2024-03-22T07:31:38;38.78;;;17.90;;
40453;SDS011;26160;51.858;4.398;2024-03-22T07:34:05;37.60;;;16.60;;
40453;SDS011;26160;51.858;4.398;2024-03-22T07:36:32;31.92;;;15.27;;
40453;SDS011;26160;51.858;4.398;2024-03-22T07:39:03;32.55;;;15.32;;
40453;SDS011;26160;51.858;4.398;2024-03-22T07:41:32;38.17;;;14.45;;
40453;SDS011;26160;51.858;4.398;2024-03-22T07:43:59;32.85;;;14.18;;
40453;SDS011;26160;51.858;4.398;2024-03-22T07:46:26;31.05;;;12.93;;
40453;SDS011;26160;51.858;4.398;2024-03-22T07:48:53;36.33;;;13.48;;
40453;SDS011;26160;51.858;4.398;2024-03-22T07:51:20;29.13;;;13.23;;
40453;SDS011;26160;51.858;4.398;2024-03-22T07:53:46;33.42;;;12.75;;
40453;SDS011;26160;51.858;4.398;2024-03-22T07:56:13;32.35;;;13.65;;
40453;SDS011;26160;51.858;4.398;2024-03-22T07:58:41;38.47;;;15.35;;
40453;SDS011;26160;51.858;4.398;2024-03-22T08:01:08;31.40;;;14.23;;
40453;SDS011;26160;51.858;4.398;2024-03-22T08:03:35;28.10;;;13.93;;
40453;SDS011;26160;51.858;4.398;2024-03-22T08:06:01;33.92;;;13.32;;
40453;SDS011;26160;51.858;4.398;2024-03-22T08:08:27;39.00;;;14.75;;
40453;SDS011;26160;51.858;4.398;2024-03-22T08:10:53;35.92;;;13.55;;
40453;SDS011;26160;51.858;4.398;2024-03-22T08:13:19;34.47;;;13.15;;
40453;SDS011;26160;51.858;4.398;2024-03-22T08:15:45;33.53;;;14.32;;
40453;SDS011;26160;51.858;4.398;2024-03-22T08:18:12;31.38;;;13.40;;
40453;SDS011;26160;51.858;4.398;2024-03-22T08:20:38;31.77;;;13.32;;
40453;SDS011;26160;51.858;4.398;2024-03-22T08:23:05;35.97;;;14.25;;
40453;SDS011;26160;51.858;4.398;2024-03-22T08:25:31;36.80;;;13.07;;
40453;SDS011;26160;51.858;4.398;2024-03-22T08:27:57;35.67;;;13.73;;
40453;SDS011;26160;51.858;4.398;2024-03-22T08:30:24;31.23;;;12.25;;
40453;SDS011;26160;51.858;4.398;2024-03-22T08:35:22;32.20;;;13.07;;
40453;SDS011;26160;51.858;4.398;2024-03-22T08:37:48;33.72;;;14.30;;
40453;SDS011;26160;51.858;4.398;2024-03-22T08:40:24;40.45;;;14.65;;
40453;SDS011;26160;51.858;4.398;2024-03-22T08:42:50;44.40;;;14.20;;
40453;SDS011;26160;51.858;4.398;2024-03-22T08:45:23;30.80;;;15.00;;
40453;SDS011;26160;51.858;4.398;2024-03-22T08:47:49;40.83;;;15.20;;
40453;SDS011;26160;51.858;4.398;2024-03-22T08:50:15;51.42;;;16.65;;
40453;SDS011;26160;51.858;4.398;2024-03-22T08:52:41;41.90;;;16.40;;
40453;SDS011;26160;51.858;4.398;2024-03-22T08:55:08;39.42;;;16.23;;
40453;SDS011;26160;51.858;4.398;2024-03-22T08:57:36;35.30;;;15.20;;
40453;SDS011;26160;51.858;4.398;2024-03-22T09:00:02;39.20;;;17.35;;
40453;SDS011;26160;51.858;4.398;2024-03-22T09:02:29;37.00;;;16.73;;
40453;SDS011;26160;51.858;4.398;2024-03-22T09:04:56;44.72;;;17.70;;
40453;SDS011;26160;51.858;4.398;2024-03-22T09:07:22;40.78;;;17.40;;
40453;SDS011;26160;51.858;4.398;2024-03-22T09:09:49;32.22;;;16.35;;
40453;SDS011;26160;51.858;4.398;2024-03-22T09:12:15;43.90;;;18.53;;
40453;SDS011;26160;51.858;4.398;2024-03-22T09:14:41;37.80;;;17.73;;
40453;SDS011;26160;51.858;4.398;2024-03-22T09:17:07;40.03;;;16.87;;
40453;SDS011;26160;51.858;4.398;2024-03-22T09:19:33;41.00;;;19.05;;
40453;SDS011;26160;51.858;4.398;2024-03-22T09:22:00;45.03;;;18.83;;
40453;SDS011;26160;51.858;4.398;2024-03-22T09:24:26;48.03;;;19.00;;
40453;SDS011;26160;51.858;4.398;2024-03-22T09:26:52;44.97;;;17.58;;
40453;SDS011;26160;51.858;4.398;2024-03-22T09:29:18;49.63;;;17.95;;
40453;SDS011;26160;51.858;4.398;2024-03-22T09:31:44;43.55;;;16.58;;
40453;SDS011;26160;51.858;4.398;2024-03-22T09:34:12;41.88;;;16.90;;
40453;SDS011;26160;51.858;4.398;2024-03-22T09:36:38;40.15;;;15.00;;
40453;SDS011;26160;51.858;4.398;2024-03-22T09:39:04;44.50;;;16.85;;
40453;SDS011;26160;51.858;4.398;2024-03-22T09:41:31;37.03;;;15.20;;
40453;SDS011;26160;51.858;4.398;2024-03-22T09:44:06;47.88;;;16.40;;
40453;SDS011;26160;51.858;4.398;2024-03-22T09:46:33;52.10;;;16.25;;
40453;SDS011;26160;51.858;4.398;2024-03-22T09:49:00;53.40;;;16.58;;
40453;SDS011;26160;51.858;4.398;2024-03-22T09:51:27;36.08;;;13.32;;
40453;SDS011;26160;51.858;4.398;2024-03-22T09:53:54;29.30;;;13.05;;
40453;SDS011;26160;51.858;4.398;2024-03-22T09:56:21;44.03;;;13.90;;
40453;SDS011;26160;51.858;4.398;2024-03-22T09:58:48;37.30;;;13.30;;
40453;SDS011;26160;51.858;4.398;2024-03-22T10:01:15;29.50;;;12.13;;
40453;SDS011;26160;51.858;4.398;2024-03-22T10:03:41;39.65;;;14.35;;
40453;SDS011;26160;51.858;4.398;2024-03-22T10:06:09;40.42;;;13.35;;
40453;SDS011;26160;51.858;4.398;2024-03-22T10:08:35;34.22;;;12.52;;
40453;SDS011;26160;51.858;4.398;2024-03-22T10:11:02;35.65;;;12.70;;
40453;SDS011;26160;51.858;4.398;2024-03-22T10:13:28;33.22;;;11.02;;
40453;SDS011;26160;51.858;4.398;2024-03-22T10:15:56;36.08;;;11.43;;
40453;SDS011;26160;51.858;4.398;2024-03-22T10:18:22;28.00;;;10.60;;
40453;SDS011;26160;51.858;4.398;2024-03-22T10:20:58;27.25;;;10.45;;
40453;SDS011;26160;51.858;4.398;2024-03-22T10:23:30;31.67;;;11.52;;
40453;SDS011;26160;51.858;4.398;2024-03-22T10:25:56;37.15;;;11.23;;
40453;SDS011;26160;51.858;4.398;2024-03-22T10:28:26;30.67;;;10.60;;
40453;SDS011;26160;51.858;4.398;2024-03-22T10:30:52;38.53;;;11.23;;
40453;SDS011;26160;51.858;4.398;2024-03-22T10:33:20;38.30;;;11.85;;
40453;SDS011;26160;51.858;4.398;2024-03-22T10:35:52;23.40;;;10.82;;
40453;SDS011;26160;51.858;4.398;2024-03-22T10:38:19;33.03;;;11.02;;
40453;SDS011;26160;51.858;4.398;2024-03-22T10:40:46;26.75;;;9.80;;
40453;SDS011;26160;51.858;4.398;2024-03-22T10:43:14;18.92;;;10.05;;
40453;SDS011;26160;51.858;4.398;2024-03-22T10:45:40;26.35;;;9.60;;
40453;SDS011;26160;51.858;4.398;2024-03-22T10:48:09;25.38;;;10.43;;
40453;SDS011;26160;51.858;4.398;2024-03-22T10:50:39;30.58;;;11.15;;
40453;SDS011;26160;51.858;4.398;2024-03-22T10:53:08;19.23;;;9.52;;
40453;SDS011;26160;51.858;4.398;2024-03-22T10:55:41;17.97;;;8.30;;
40453;SDS011;26160;51.858;4.398;2024-03-22T10:58:16;18.02;;;9.75;;
40453;SDS011;26160;51.858;4.398;2024-03-22T11:00:43;17.55;;;8.40;;
40453;SDS011;26160;51.858;4.398;2024-03-22T11:03:10;18.75;;;8.70;;
40453;SDS011;26160;51.858;4.398;2024-03-22T11:05:45;13.70;;;8.25;;
40453;SDS011;26160;51.858;4.398;2024-03-22T11:08:12;13.07;;;8.93;;
40453;SDS011;26160;51.858;4.398;2024-03-22T11:10:39;18.20;;;10.18;;
40453;SDS011;26160;51.858;4.398;2024-03-22T11:13:06;16.80;;;10.10;;
40453;SDS011;26160;51.858;4.398;2024-03-22T11:15:34;26.20;;;11.30;;
40453;SDS011;26160;51.858;4.398;2024-03-22T11:18:00;15.63;;;10.00;;
40453;SDS011;26160;51.858;4.398;2024-03-22T11:20:27;20.38;;;11.50;;
40453;SDS011;26160;51.858;4.398;2024-03-22T11:22:55;18.48;;;10.63;;
40453;SDS011;26160;51.858;4.398;2024-03-22T11:25:21;15.30;;;10.40;;
40453;SDS011;26160;51.858;4.398;2024-03-22T11:27:47;22.13;;;9.98;;
40453;SDS011;26160;51.858;4.398;2024-03-22T11:30:15;18.08;;;10.68;;
40453;SDS011;26160;51.858;4.398;2024-03-22T11:32:41;23.92;;;10.68;;
40453;SDS011;26160;51.858;4.398;2024-03-22T11:35:11;18.95;;;10.55;;
40453;SDS011;26160;51.858;4.398;2024-03-22T11:37:41;18.33;;;11.73;;
40453;SDS011;26160;51.858;4.398;2024-03-22T11:40:10;20.30;;;9.13;;
40453;SDS011;26160;51.858;4.398;2024-03-22T11:42:38;17.20;;;10.38;;
40453;SDS011;26160;51.858;4.398;2024-03-22T11:45:08;19.40;;;11.75;;
40453;SDS011;26160;51.858;4.398;2024-03-22T11:47:36;16.60;;;10.30;;
40453;SDS011;26160;51.858;4.398;2024-03-22T11:50:02;21.30;;;11.00;;
40453;SDS011;26160;51.858;4.398;2024-03-22T11:52:29;17.50;;;10.52;;
40453;SDS011;26160;51.858;4.398;2024-03-22T11:54:56;17.30;;;10.52;;
40453;SDS011;26160;51.858;4.398;2024-03-22T11:57:22;20.58;;;11.48;;
40453;SDS011;26160;51.858;4.398;2024-03-22T11:59:50;15.85;;;10.35;;
40453;SDS011;26160;51.858;4.398;2024-03-22T12:02:17;21.13;;;11.30;;
40453;SDS011;26160;51.858;4.398;2024-03-22T12:04:46;17.83;;;10.27;;
40453;SDS011;26160;51.858;4.398;2024-03-22T12:07:13;20.23;;;10.43;;
40453;SDS011;26160;51.858;4.398;2024-03-22T12:09:46;15.35;;;9.18;;
40453;SDS011;26160;51.858;4.398;2024-03-22T12:12:12;20.35;;;10.48;;
40453;SDS011;26160;51.858;4.398;2024-03-22T12:14:39;15.18;;;8.88;;
40453;SDS011;26160;51.858;4.398;2024-03-22T12:17:05;19.58;;;10.65;;
40453;SDS011;26160;51.858;4.398;2024-03-22T12:19:32;10.85;;;7.65;;
40453;SDS011;26160;51.858;4.398;2024-03-22T12:21:59;11.07;;;7.72;;
40453;SDS011;26160;51.858;4.398;2024-03-22T12:24:26;12.13;;;7.15;;
40453;SDS011;26160;51.858;4.398;2024-03-22T12:26:55;9.32;;;6.72;;
40453;SDS011;26160;51.858;4.398;2024-03-22T12:29:21;12.65;;;7.72;;
40453;SDS011;26160;51.858;4.398;2024-03-22T12:31:47;10.90;;;7.03;;
40453;SDS011;26160;51.858;4.398;2024-03-22T12:34:13;10.93;;;7.50;;
40453;SDS011;26160;51.858;4.398;2024-03-22T12:36:40;11.27;;;7.43;;
40453;SDS011;26160;51.858;4.398;2024-03-22T12:39:06;13.48;;;8.95;;
40453;SDS011;26160;51.858;4.398;2024-03-22T12:41:33;12.73;;;9.48;;
40453;SDS011;26160;51.858;4.398;2024-03-22T12:44:00;13.57;;;9.50;;
40453;SDS011;26160;51.858;4.398;2024-03-22T12:46:26;17.98;;;11.65;;
40453;SDS011;26160;51.858;4.398;2024-03-22T12:48:53;15.32;;;10.00;;
40453;SDS011;26160;51.858;4.398;2024-03-22T12:51:19;19.23;;;11.48;;
40453;SDS011;26160;51.858;4.398;2024-03-22T12:53:46;15.35;;;11.35;;
40453;SDS011;26160;51.858;4.398;2024-03-22T12:56:12;20.15;;;13.13;;
40453;SDS011;26160;51.858;4.398;2024-03-22T12:58:38;17.85;;;12.70;;
40453;SDS011;26160;51.858;4.398;2024-03-22T13:01:05;23.20;;;14.05;;
40453;SDS011;26160;51.858;4.398;2024-03-22T13:03:34;21.10;;;14.00;;
40453;SDS011;26160;51.858;4.398;2024-03-22T13:06:00;21.92;;;13.15;;
40453;SDS011;26160;51.858;4.398;2024-03-22T13:08:26;27.02;;;15.18;;
40453;SDS011;26160;51.858;4.398;2024-03-22T13:10:52;27.60;;;16.42;;
40453;SDS011;26160;51.858;4.398;2024-03-22T13:13:19;28.92;;;15.25;;
40453;SDS011;26160;51.858;4.398;2024-03-22T13:15:45;31.63;;;16.63;;
40453;SDS011;26160;51.858;4.398;2024-03-22T13:18:12;30.00;;;16.05;;
40453;SDS011;26160;51.858;4.398;2024-03-22T13:20:39;26.45;;;15.35;;
40453;SDS011;26160;51.858;4.398;2024-03-22T13:23:05;29.35;;;15.73;;
40453;SDS011;26160;51.858;4.398;2024-03-22T13:25:36;25.88;;;16.30;;
40453;SDS011;26160;51.858;4.398;2024-03-22T13:28:03;27.50;;;15.63;;
40453;SDS011;26160;51.858;4.398;2024-03-22T13:30:31;25.33;;;14.70;;
40453;SDS011;26160;51.858;4.398;2024-03-22T13:32:57;29.48;;;15.60;;
40453;SDS011;26160;51.858;4.398;2024-03-22T13:35:24;26.13;;;15.23;;
40453;SDS011;26160;51.858;4.398;2024-03-22T13:37:50;27.58;;;15.13;;
40453;SDS011;26160;51.858;4.398;2024-03-22T13:40:17;31.40;;;17.13;;
40453;SDS011;26160;51.858;4.398;2024-03-22T13:42:43;27.70;;;16.35;;
40453;SDS011;26160;51.858;4.398;2024-03-22T13:45:10;30.67;;;16.15;;
40453;SDS011;26160;51.858;4.398;2024-03-22T13:47:36;29.23;;;16.27;;
40453;SDS011;26160;51.858;4.398;2024-03-22T13:50:06;27.83;;;17.58;;
40453;SDS011;26160;51.858;4.398;2024-03-22T13:52:35;32.28;;;17.52;;
40453;SDS011;26160;51.858;4.398;2024-03-22T13:55:02;30.23;;;17.17;;
40453;SDS011;26160;51.858;4.398;2024-03-22T13:57:28;28.50;;;16.38;;
40453;SDS011;26160;51.858;4.398;2024-03-22T13:59:54;30.35;;;17.17;;
40453;SDS011;26160;51.858;4.398;2024-03-22T14:02:20;31.42;;;18.70;;
40453;SDS011;26160;51.858;4.398;2024-03-22T14:04:47;34.97;;;17.30;;
40453;SDS011;26160;51.858;4.398;2024-03-22T14:07:13;29.35;;;18.13;;
40453;SDS011;26160;51.858;4.398;2024-03-22T14:09:40;31.40;;;15.55;;
40453;SDS011;26160;51.858;4.398;2024-03-22T14:12:08;28.15;;;15.43;;
40453;SDS011;26160;51.858;4.398;2024-03-22T14:14:34;27.42;;;14.70;;
40453;SDS011;26160;51.858;4.398;2024-03-22T14:17:00;26.45;;;15.07;;
40453;SDS011;26160;51.858;4.398;2024-03-22T14:19:27;27.58;;;16.65;;
40453;SDS011;26160;51.858;4.398;2024-03-22T14:21:53;24.17;;;13.75;;
40453;SDS011;26160;51.858;4.398;2024-03-22T14:24:19;26.05;;;14.07;;
40453;SDS011;26160;51.858;4.398;2024-03-22T14:26:45;32.10;;;14.15;;
40453;SDS011;26160;51.858;4.398;2024-03-22T14:29:11;31.63;;;14.80;;
40453;SDS011;26160;51.858;4.398;2024-03-22T14:31:38;27.77;;;14.88;;
40453;SDS011;26160;51.858;4.398;2024-03-22T14:34:07;27.50;;;15.73;;
40453;SDS011;26160;51.858;4.398;2024-03-22T14:36:35;28.02;;;14.25;;
40453;SDS011;26160;51.858;4.398;2024-03-22T14:39:01;24.55;;;14.77;;
40453;SDS011;26160;51.858;4.398;2024-03-22T14:41:34;26.60;;;14.43;;
40453;SDS011;26160;51.858;4.398;2024-03-22T14:44:00;28.23;;;15.88;;
40453;SDS011;26160;51.858;4.398;2024-03-22T14:46:27;28.52;;;16.02;;
40453;SDS011;26160;51.858;4.398;2024-03-22T14:48:54;30.65;;;16.52;;
40453;SDS011;26160;51.858;4.398;2024-03-22T14:51:21;23.33;;;15.65;;
40453;SDS011;26160;51.858;4.398;2024-03-22T14:53:47;30.67;;;17.38;;
40453;SDS011;26160;51.858;4.398;2024-03-22T14:56:13;36.38;;;18.10;;
40453;SDS011;26160;51.858;4.398;2024-03-22T14:58:40;34.50;;;17.98;;
40453;SDS011;26160;51.858;4.398;2024-03-22T15:01:08;30.95;;;14.68;;
40453;SDS011;26160;51.858;4.398;2024-03-22T15:03:34;29.58;;;14.30;;
40453;SDS011;26160;51.858;4.398;2024-03-22T15:06:01;27.67;;;15.38;;
40453;SDS011;26160;51.858;4.398;2024-03-22T15:08:27;34.55;;;13.68;;
40453;SDS011;26160;51.858;4.398;2024-03-22T15:10:53;25.60;;;9.48;;
40453;SDS011;26160;51.858;4.398;2024-03-22T15:13:20;22.60;;;9.15;;
40453;SDS011;26160;51.858;4.398;2024-03-22T15:15:53;24.35;;;11.25;;
40453;SDS011;26160;51.858;4.398;2024-03-22T15:18:24;24.00;;;12.57;;
40453;SDS011;26160;51.858;4.398;2024-03-22T15:20:52;26.75;;;13.63;;
40453;SDS011;26160;51.858;4.398;2024-03-22T15:23:18;29.83;;;13.88;;
40453;SDS011;26160;51.858;4.398;2024-03-22T15:25:47;25.47;;;13.07;;
40453;SDS011;26160;51.858;4.398;2024-03-22T15:28:14;25.70;;;11.68;;
40453;SDS011;26160;51.858;4.398;2024-03-22T15:30:44;26.20;;;8.57;;
40453;SDS011;26160;51.858;4.398;2024-03-22T15:33:16;26.63;;;10.20;;
40453;SDS011;26160;51.858;4.398;2024-03-22T15:35:42;32.70;;;10.10;;
40453;SDS011;26160;51.858;4.398;2024-03-22T15:38:15;21.65;;;8.60;;
40453;SDS011;26160;51.858;4.398;2024-03-22T15:40:42;26.50;;;8.17;;
40453;SDS011;26160;51.858;4.398;2024-03-22T15:43:08;26.97;;;5.77;;
40453;SDS011;26160;51.858;4.398;2024-03-22T15:45:36;32.43;;;6.37;;
40453;SDS011;26160;51.858;4.398;2024-03-22T15:48:06;25.53;;;4.90;;
40453;SDS011;26160;51.858;4.398;2024-03-22T15:50:33;29.47;;;4.40;;
40453;SDS011;26160;51.858;4.398;2024-03-22T15:53:00;24.00;;;6.27;;
40453;SDS011;26160;51.858;4.398;2024-03-22T15:55:27;25.60;;;4.90;;
40453;SDS011;26160;51.858;4.398;2024-03-22T15:57:56;25.67;;;4.73;;
40453;SDS011;26160;51.858;4.398;2024-03-22T16:00:22;31.13;;;5.30;;
40453;SDS011;26160;51.858;4.398;2024-03-22T16:02:49;27.33;;;4.97;;